sensor_id;sensor_type;location;lat;lon;timestamp;P1;durP1;ratioP1;P2;durP2;ratioP2
13289;SDS011;6713;50.954;5.310;2023-08-30T00:00:42;6.63;;;5.83;;
13289;SDS011;6713;50.954;5.310;2023-08-30T00:03:10;6.63;;;5.67;;
13289;SDS011;6713;50.954;5.310;2023-08-30T00:05:38;6.93;;;5.47;;
13289;SDS011;6713;50.954;5.310;2023-08-30T00:08:05;5.43;;;4.93;;
13289;SDS011;6713;50.954;5.310;2023-08-30T00:10:31;8.53;;;5.13;;
13289;SDS011;6713;50.954;5.310;2023-08-30T00:12:57;12.50;;;6.77;;
13289;SDS011;6713;50.954;5.310;2023-08-30T00:15:25;6.30;;;4.93;;
13289;SDS011;6713;50.954;5.310;2023-08-30T00:17:51;7.90;;;6.60;;
13289;SDS011;6713;50.954;5.310;2023-08-30T00:20:18;5.93;;;5.33;;
13289;SDS011;6713;50.954;5.310;2023-08-30T00:22:44;7.57;;;6.13;;
13289;SDS011;6713;50.954;5.310;2023-08-30T00:25:10;8.63;;;6.50;;
13289;SDS011;6713;50.954;5.310;2023-08-30T00:27:37;8.40;;;7.37;;
13289;SDS011;6713;50.954;5.310;2023-08-30T00:30:04;11.23;;;7.67;;
13289;SDS011;6713;50.954;5.310;2023-08-30T00:32:31;7.83;;;6.90;;
13289;SDS011;6713;50.954;5.310;2023-08-30T00:34:58;8.00;;;6.13;;
13289;SDS011;6713;50.954;5.310;2023-08-30T00:37:24;9.50;;;8.53;;
13289;SDS011;6713;50.954;5.310;2023-08-30T00:39:50;8.07;;;7.03;;
13289;SDS011;6713;50.954;5.310;2023-08-30T00:42:17;11.07;;;7.33;;
13289;SDS011;6713;50.954;5.310;2023-08-30T00:44:43;10.10;;;7.70;;
13289;SDS011;6713;50.954;5.310;2023-08-30T00:47:09;8.00;;;7.03;;
13289;SDS011;6713;50.954;5.310;2023-08-30T00:49:37;8.00;;;6.07;;
13289;SDS011;6713;50.954;5.310;2023-08-30T00:52:05;9.77;;;8.17;;
13289;SDS011;6713;50.954;5.310;2023-08-30T00:54:33;10.63;;;9.10;;
13289;SDS011;6713;50.954;5.310;2023-08-30T00:57:00;13.57;;;9.07;;
13289;SDS011;6713;50.954;5.310;2023-08-30T00:59:26;9.67;;;7.50;;
13289;SDS011;6713;50.954;5.310;2023-08-30T01:01:53;12.07;;;9.40;;
13289;SDS011;6713;50.954;5.310;2023-08-30T01:04:19;12.23;;;10.97;;
13289;SDS011;6713;50.954;5.310;2023-08-30T01:06:48;8.50;;;7.60;;
13289;SDS011;6713;50.954;5.310;2023-08-30T01:09:14;13.33;;;10.23;;
13289;SDS011;6713;50.954;5.310;2023-08-30T01:11:43;11.37;;;10.00;;
13289;SDS011;6713;50.954;5.310;2023-08-30T01:14:12;12.43;;;9.30;;
13289;SDS011;6713;50.954;5.310;2023-08-30T01:16:39;12.50;;;10.03;;
13289;SDS011;6713;50.954;5.310;2023-08-30T01:19:10;9.17;;;8.27;;
13289;SDS011;6713;50.954;5.310;2023-08-30T01:21:42;12.43;;;9.97;;
13289;SDS011;6713;50.954;5.310;2023-08-30T01:24:17;10.97;;;9.63;;
13289;SDS011;6713;50.954;5.310;2023-08-30T01:29:21;10.57;;;8.10;;
13289;SDS011;6713;50.954;5.310;2023-08-30T01:31:48;15.20;;;11.20;;
13289;SDS011;6713;50.954;5.310;2023-08-30T01:34:15;9.90;;;8.90;;
13289;SDS011;6713;50.954;5.310;2023-08-30T01:36:42;9.90;;;8.90;;
13289;SDS011;6713;50.954;5.310;2023-08-30T01:39:09;9.67;;;8.30;;
13289;SDS011;6713;50.954;5.310;2023-08-30T01:41:36;9.80;;;8.80;;
13289;SDS011;6713;50.954;5.310;2023-08-30T01:44:03;10.20;;;9.00;;
13289;SDS011;6713;50.954;5.310;2023-08-30T01:46:34;9.57;;;8.67;;
13289;SDS011;6713;50.954;5.310;2023-08-30T01:49:01;12.53;;;9.40;;
13289;SDS011;6713;50.954;5.310;2023-08-30T01:51:27;8.90;;;7.90;;
13289;SDS011;6713;50.954;5.310;2023-08-30T01:53:54;8.97;;;7.50;;
13289;SDS011;6713;50.954;5.310;2023-08-30T01:56:22;8.33;;;7.53;;
13289;SDS011;6713;50.954;5.310;2023-08-30T01:58:48;10.00;;;7.83;;
13289;SDS011;6713;50.954;5.310;2023-08-30T02:01:14;8.83;;;8.03;;
13289;SDS011;6713;50.954;5.310;2023-08-30T02:03:44;8.97;;;8.07;;
13289;SDS011;6713;50.954;5.310;2023-08-30T02:06:11;11.67;;;8.13;;
13289;SDS011;6713;50.954;5.310;2023-08-30T02:08:41;8.63;;;7.73;;
13289;SDS011;6713;50.954;5.310;2023-08-30T02:11:11;10.30;;;7.93;;
13289;SDS011;6713;50.954;5.310;2023-08-30T02:13:39;8.57;;;7.67;;
13289;SDS011;6713;50.954;5.310;2023-08-30T02:16:07;9.60;;;8.00;;
13289;SDS011;6713;50.954;5.310;2023-08-30T02:18:34;9.33;;;8.43;;
13289;SDS011;6713;50.954;5.310;2023-08-30T02:21:03;9.03;;;7.43;;
13289;SDS011;6713;50.954;5.310;2023-08-30T02:23:29;10.27;;;9.13;;
13289;SDS011;6713;50.954;5.310;2023-08-30T02:25:55;11.90;;;7.90;;
13289;SDS011;6713;50.954;5.310;2023-08-30T02:28:22;9.00;;;8.10;;
13289;SDS011;6713;50.954;5.310;2023-08-30T02:30:49;8.23;;;7.43;;
13289;SDS011;6713;50.954;5.310;2023-08-30T02:33:16;12.13;;;8.63;;
13289;SDS011;6713;50.954;5.310;2023-08-30T02:35:42;8.10;;;7.30;;
13289;SDS011;6713;50.954;5.310;2023-08-30T02:38:10;10.53;;;7.97;;
13289;SDS011;6713;50.954;5.310;2023-08-30T02:40:36;8.80;;;7.87;;
13289;SDS011;6713;50.954;5.310;2023-08-30T02:43:03;9.77;;;8.07;;
13289;SDS011;6713;50.954;5.310;2023-08-30T02:45:29;10.63;;;9.53;;
13289;SDS011;6713;50.954;5.310;2023-08-30T02:47:55;10.20;;;9.13;;
13289;SDS011;6713;50.954;5.310;2023-08-30T02:50:22;8.30;;;7.50;;
13289;SDS011;6713;50.954;5.310;2023-08-30T02:52:49;8.17;;;7.37;;
13289;SDS011;6713;50.954;5.310;2023-08-30T02:55:16;9.00;;;7.73;;
13289;SDS011;6713;50.954;5.310;2023-08-30T02:57:43;10.87;;;7.63;;
13289;SDS011;6713;50.954;5.310;2023-08-30T03:00:09;8.73;;;7.93;;
13289;SDS011;6713;50.954;5.310;2023-08-30T03:02:36;9.03;;;8.13;;
13289;SDS011;6713;50.954;5.310;2023-08-30T03:05:03;9.67;;;6.27;;
13289;SDS011;6713;50.954;5.310;2023-08-30T03:07:29;8.93;;;8.03;;
13289;SDS011;6713;50.954;5.310;2023-08-30T03:09:56;8.40;;;7.60;;
13289;SDS011;6713;50.954;5.310;2023-08-30T03:12:24;9.30;;;8.40;;
13289;SDS011;6713;50.954;5.310;2023-08-30T03:14:50;10.07;;;8.10;;
13289;SDS011;6713;50.954;5.310;2023-08-30T03:17:17;10.03;;;8.53;;
13289;SDS011;6713;50.954;5.310;2023-08-30T03:19:43;9.77;;;8.50;;
13289;SDS011;6713;50.954;5.310;2023-08-30T03:22:09;8.90;;;8.00;;
13289;SDS011;6713;50.954;5.310;2023-08-30T03:24:36;9.97;;;9.00;;
13289;SDS011;6713;50.954;5.310;2023-08-30T03:27:02;7.30;;;6.60;;
13289;SDS011;6713;50.954;5.310;2023-08-30T03:29:30;10.47;;;9.37;;
13289;SDS011;6713;50.954;5.310;2023-08-30T03:31:56;11.20;;;9.40;;
13289;SDS011;6713;50.954;5.310;2023-08-30T03:34:22;13.50;;;11.80;;
13289;SDS011;6713;50.954;5.310;2023-08-30T03:36:49;12.37;;;11.07;;
13289;SDS011;6713;50.954;5.310;2023-08-30T03:39:19;11.60;;;10.40;;
13289;SDS011;6713;50.954;5.310;2023-08-30T03:41:45;12.23;;;10.87;;
13289;SDS011;6713;50.954;5.310;2023-08-30T03:44:11;12.60;;;8.97;;
13289;SDS011;6713;50.954;5.310;2023-08-30T03:46:39;10.07;;;8.97;;
13289;SDS011;6713;50.954;5.310;2023-08-30T03:49:06;9.97;;;8.97;;
13289;SDS011;6713;50.954;5.310;2023-08-30T03:51:32;11.10;;;9.07;;
13289;SDS011;6713;50.954;5.310;2023-08-30T03:53:58;8.70;;;7.90;;
13289;SDS011;6713;50.954;5.310;2023-08-30T03:56:25;9.57;;;8.57;;
13289;SDS011;6713;50.954;5.310;2023-08-30T03:58:51;10.67;;;9.57;;
13289;SDS011;6713;50.954;5.310;2023-08-30T04:01:17;12.30;;;10.77;;
13289;SDS011;6713;50.954;5.310;2023-08-30T04:03:45;11.77;;;10.57;;
13289;SDS011;6713;50.954;5.310;2023-08-30T04:06:11;10.40;;;8.37;;
13289;SDS011;6713;50.954;5.310;2023-08-30T04:08:38;9.73;;;8.73;;
13289;SDS011;6713;50.954;5.310;2023-08-30T04:11:04;11.00;;;9.27;;
13289;SDS011;6713;50.954;5.310;2023-08-30T04:13:30;9.10;;;8.03;;
13289;SDS011;6713;50.954;5.310;2023-08-30T04:15:57;9.70;;;8.73;;
13289;SDS011;6713;50.954;5.310;2023-08-30T04:18:24;11.73;;;9.57;;
13289;SDS011;6713;50.954;5.310;2023-08-30T04:20:52;10.20;;;9.07;;
13289;SDS011;6713;50.954;5.310;2023-08-30T04:23:18;12.93;;;11.53;;
13289;SDS011;6713;50.954;5.310;2023-08-30T04:25:44;12.67;;;11.37;;
13289;SDS011;6713;50.954;5.310;2023-08-30T04:28:11;14.87;;;12.87;;
13289;SDS011;6713;50.954;5.310;2023-08-30T04:30:37;17.77;;;13.57;;
13289;SDS011;6713;50.954;5.310;2023-08-30T04:33:04;18.00;;;16.17;;
13289;SDS011;6713;50.954;5.310;2023-08-30T04:35:30;16.77;;;14.63;;
13289;SDS011;6713;50.954;5.310;2023-08-30T04:37:58;17.90;;;13.63;;
13289;SDS011;6713;50.954;5.310;2023-08-30T04:40:25;15.93;;;14.23;;
13289;SDS011;6713;50.954;5.310;2023-08-30T04:42:51;14.77;;;12.30;;
13289;SDS011;6713;50.954;5.310;2023-08-30T04:45:17;13.73;;;12.27;;
13289;SDS011;6713;50.954;5.310;2023-08-30T04:47:44;14.03;;;12.47;;
13289;SDS011;6713;50.954;5.310;2023-08-30T04:50:10;13.67;;;12.27;;
13289;SDS011;6713;50.954;5.310;2023-08-30T04:52:37;13.33;;;11.43;;
13289;SDS011;6713;50.954;5.310;2023-08-30T04:55:05;13.87;;;12.37;;
13289;SDS011;6713;50.954;5.310;2023-08-30T04:57:32;19.13;;;12.90;;
13289;SDS011;6713;50.954;5.310;2023-08-30T04:59:58;15.90;;;12.40;;
13289;SDS011;6713;50.954;5.310;2023-08-30T05:02:29;13.57;;;11.90;;
13289;SDS011;6713;50.954;5.310;2023-08-30T05:04:55;12.73;;;10.67;;
13289;SDS011;6713;50.954;5.310;2023-08-30T05:07:21;10.90;;;9.77;;
13289;SDS011;6713;50.954;5.310;2023-08-30T05:09:48;11.97;;;10.77;;
13289;SDS011;6713;50.954;5.310;2023-08-30T05:12:16;12.40;;;11.10;;
13289;SDS011;6713;50.954;5.310;2023-08-30T05:14:42;12.60;;;9.93;;
13289;SDS011;6713;50.954;5.310;2023-08-30T05:17:08;14.67;;;13.17;;
13289;SDS011;6713;50.954;5.310;2023-08-30T05:19:34;11.83;;;10.73;;
13289;SDS011;6713;50.954;5.310;2023-08-30T05:22:01;14.03;;;11.90;;
13289;SDS011;6713;50.954;5.310;2023-08-30T05:24:27;12.87;;;11.57;;
13289;SDS011;6713;50.954;5.310;2023-08-30T05:26:54;10.90;;;9.73;;
13289;SDS011;6713;50.954;5.310;2023-08-30T05:29:21;12.57;;;11.20;;
13289;SDS011;6713;50.954;5.310;2023-08-30T05:31:48;12.80;;;11.50;;
13289;SDS011;6713;50.954;5.310;2023-08-30T05:34:14;13.50;;;11.20;;
13289;SDS011;6713;50.954;5.310;2023-08-30T05:36:41;12.60;;;11.40;;
13289;SDS011;6713;50.954;5.310;2023-08-30T05:39:07;11.53;;;10.33;;
13289;SDS011;6713;50.954;5.310;2023-08-30T05:41:33;13.97;;;10.10;;
13289;SDS011;6713;50.954;5.310;2023-08-30T05:44:00;13.17;;;10.73;;
13289;SDS011;6713;50.954;5.310;2023-08-30T05:46:27;12.30;;;10.47;;
13289;SDS011;6713;50.954;5.310;2023-08-30T05:48:54;15.10;;;10.10;;
13289;SDS011;6713;50.954;5.310;2023-08-30T05:51:20;9.73;;;8.77;;
13289;SDS011;6713;50.954;5.310;2023-08-30T05:53:46;10.87;;;8.50;;
13289;SDS011;6713;50.954;5.310;2023-08-30T05:56:13;11.13;;;8.40;;
13289;SDS011;6713;50.954;5.310;2023-08-30T05:58:39;10.10;;;8.17;;
13289;SDS011;6713;50.954;5.310;2023-08-30T06:01:05;8.80;;;7.80;;
13289;SDS011;6713;50.954;5.310;2023-08-30T06:03:34;8.33;;;7.30;;
13289;SDS011;6713;50.954;5.310;2023-08-30T06:06:00;10.33;;;7.57;;
13289;SDS011;6713;50.954;5.310;2023-08-30T06:08:26;8.50;;;7.70;;
13289;SDS011;6713;50.954;5.310;2023-08-30T06:10:53;8.40;;;6.97;;
13289;SDS011;6713;50.954;5.310;2023-08-30T06:13:19;7.90;;;6.73;;
13289;SDS011;6713;50.954;5.310;2023-08-30T06:15:49;6.77;;;6.03;;
13289;SDS011;6713;50.954;5.310;2023-08-30T06:18:16;7.50;;;6.80;;
13289;SDS011;6713;50.954;5.310;2023-08-30T06:20:43;8.17;;;6.53;;
13289;SDS011;6713;50.954;5.310;2023-08-30T06:23:10;8.10;;;7.30;;
13289;SDS011;6713;50.954;5.310;2023-08-30T06:25:36;9.50;;;7.17;;
13289;SDS011;6713;50.954;5.310;2023-08-30T06:28:02;9.83;;;5.97;;
13289;SDS011;6713;50.954;5.310;2023-08-30T06:30:29;6.27;;;5.60;;
13289;SDS011;6713;50.954;5.310;2023-08-30T06:32:55;7.77;;;6.00;;
13289;SDS011;6713;50.954;5.310;2023-08-30T06:35:22;4.97;;;4.47;;
13289;SDS011;6713;50.954;5.310;2023-08-30T06:37:49;5.80;;;4.70;;
13289;SDS011;6713;50.954;5.310;2023-08-30T06:40:17;4.80;;;4.33;;
13289;SDS011;6713;50.954;5.310;2023-08-30T06:42:43;4.90;;;4.10;;
13289;SDS011;6713;50.954;5.310;2023-08-30T06:45:10;4.03;;;3.73;;
13289;SDS011;6713;50.954;5.310;2023-08-30T06:47:37;4.73;;;3.93;;
13289;SDS011;6713;50.954;5.310;2023-08-30T06:50:03;4.70;;;3.27;;
13289;SDS011;6713;50.954;5.310;2023-08-30T06:52:30;5.10;;;2.97;;
13289;SDS011;6713;50.954;5.310;2023-08-30T06:54:58;3.37;;;3.07;;
13289;SDS011;6713;50.954;5.310;2023-08-30T06:57:24;3.50;;;3.20;;
13289;SDS011;6713;50.954;5.310;2023-08-30T06:59:50;3.73;;;2.70;;
13289;SDS011;6713;50.954;5.310;2023-08-30T07:02:17;4.30;;;2.97;;
13289;SDS011;6713;50.954;5.310;2023-08-30T07:04:43;2.33;;;2.13;;
13289;SDS011;6713;50.954;5.310;2023-08-30T07:07:09;3.50;;;2.90;;
13289;SDS011;6713;50.954;5.310;2023-08-30T07:09:37;3.10;;;2.03;;
13289;SDS011;6713;50.954;5.310;2023-08-30T07:12:06;3.23;;;2.40;;
13289;SDS011;6713;50.954;5.310;2023-08-30T07:14:32;2.87;;;2.57;;
13289;SDS011;6713;50.954;5.310;2023-08-30T07:16:58;6.63;;;3.10;;
13289;SDS011;6713;50.954;5.310;2023-08-30T07:19:25;3.13;;;2.60;;
13289;SDS011;6713;50.954;5.310;2023-08-30T07:21:51;4.30;;;2.80;;
13289;SDS011;6713;50.954;5.310;2023-08-30T07:24:17;4.03;;;2.57;;
13289;SDS011;6713;50.954;5.310;2023-08-30T07:26:44;4.97;;;2.43;;
13289;SDS011;6713;50.954;5.310;2023-08-30T07:29:11;4.10;;;2.23;;
13289;SDS011;6713;50.954;5.310;2023-08-30T07:31:38;3.10;;;2.07;;
13289;SDS011;6713;50.954;5.310;2023-08-30T07:34:06;4.17;;;2.50;;
13289;SDS011;6713;50.954;5.310;2023-08-30T07:36:33;4.97;;;3.13;;
13289;SDS011;6713;50.954;5.310;2023-08-30T07:38:59;3.20;;;2.60;;
13289;SDS011;6713;50.954;5.310;2023-08-30T07:41:27;2.63;;;2.20;;
13289;SDS011;6713;50.954;5.310;2023-08-30T07:43:53;4.30;;;2.77;;
13289;SDS011;6713;50.954;5.310;2023-08-30T07:46:21;5.20;;;2.23;;
13289;SDS011;6713;50.954;5.310;2023-08-30T07:48:47;3.53;;;2.97;;
13289;SDS011;6713;50.954;5.310;2023-08-30T07:51:14;4.30;;;2.53;;
13289;SDS011;6713;50.954;5.310;2023-08-30T07:53:40;3.17;;;2.50;;
13289;SDS011;6713;50.954;5.310;2023-08-30T07:56:07;3.60;;;2.83;;
13289;SDS011;6713;50.954;5.310;2023-08-30T07:58:33;4.27;;;3.10;;
13289;SDS011;6713;50.954;5.310;2023-08-30T08:01:00;2.80;;;2.53;;
13289;SDS011;6713;50.954;5.310;2023-08-30T08:03:27;2.80;;;2.60;;
13289;SDS011;6713;50.954;5.310;2023-08-30T08:05:54;4.80;;;2.90;;
13289;SDS011;6713;50.954;5.310;2023-08-30T08:08:20;3.03;;;2.30;;
13289;SDS011;6713;50.954;5.310;2023-08-30T08:10:46;4.03;;;2.50;;
13289;SDS011;6713;50.954;5.310;2023-08-30T08:13:13;4.53;;;3.10;;
13289;SDS011;6713;50.954;5.310;2023-08-30T08:15:39;5.80;;;3.13;;
13289;SDS011;6713;50.954;5.310;2023-08-30T08:18:06;3.67;;;3.37;;
13289;SDS011;6713;50.954;5.310;2023-08-30T08:20:33;3.20;;;2.90;;
13289;SDS011;6713;50.954;5.310;2023-08-30T08:23:00;4.37;;;3.00;;
13289;SDS011;6713;50.954;5.310;2023-08-30T08:25:27;6.47;;;3.40;;
13289;SDS011;6713;50.954;5.310;2023-08-30T08:27:53;5.67;;;4.17;;
13289;SDS011;6713;50.954;5.310;2023-08-30T08:30:20;3.53;;;3.23;;
13289;SDS011;6713;50.954;5.310;2023-08-30T08:32:47;4.80;;;3.60;;
13289;SDS011;6713;50.954;5.310;2023-08-30T08:35:14;5.73;;;3.50;;
13289;SDS011;6713;50.954;5.310;2023-08-30T08:37:41;4.97;;;3.83;;
13289;SDS011;6713;50.954;5.310;2023-08-30T08:40:08;4.13;;;3.80;;
13289;SDS011;6713;50.954;5.310;2023-08-30T08:42:35;5.23;;;4.20;;
13289;SDS011;6713;50.954;5.310;2023-08-30T08:45:02;6.10;;;3.87;;
13289;SDS011;6713;50.954;5.310;2023-08-30T08:47:29;9.47;;;6.00;;
13289;SDS011;6713;50.954;5.310;2023-08-30T08:49:56;4.50;;;4.10;;
13289;SDS011;6713;50.954;5.310;2023-08-30T08:52:23;5.63;;;4.73;;
13289;SDS011;6713;50.954;5.310;2023-08-30T08:54:51;4.50;;;4.10;;
13289;SDS011;6713;50.954;5.310;2023-08-30T08:57:18;4.80;;;4.30;;
13289;SDS011;6713;50.954;5.310;2023-08-30T08:59:44;5.83;;;4.13;;
13289;SDS011;6713;50.954;5.310;2023-08-30T09:02:11;5.93;;;4.63;;
13289;SDS011;6713;50.954;5.310;2023-08-30T09:04:38;5.83;;;4.60;;
13289;SDS011;6713;50.954;5.310;2023-08-30T09:07:05;5.10;;;4.60;;
13289;SDS011;6713;50.954;5.310;2023-08-30T09:09:32;6.23;;;4.73;;
13289;SDS011;6713;50.954;5.310;2023-08-30T09:12:00;5.27;;;4.00;;
13289;SDS011;6713;50.954;5.310;2023-08-30T09:14:26;5.83;;;4.30;;
13289;SDS011;6713;50.954;5.310;2023-08-30T09:16:55;4.17;;;3.47;;
13289;SDS011;6713;50.954;5.310;2023-08-30T09:19:22;6.40;;;4.47;;
13289;SDS011;6713;50.954;5.310;2023-08-30T09:21:51;4.17;;;3.73;;
13289;SDS011;6713;50.954;5.310;2023-08-30T09:24:18;4.47;;;4.07;;
13289;SDS011;6713;50.954;5.310;2023-08-30T09:26:46;4.27;;;3.87;;
13289;SDS011;6713;50.954;5.310;2023-08-30T09:29:16;4.93;;;4.43;;
13289;SDS011;6713;50.954;5.310;2023-08-30T09:31:42;6.10;;;4.23;;
13289;SDS011;6713;50.954;5.310;2023-08-30T09:34:09;4.30;;;3.87;;
13289;SDS011;6713;50.954;5.310;2023-08-30T09:36:36;5.27;;;3.70;;
13289;SDS011;6713;50.954;5.310;2023-08-30T09:39:03;4.83;;;4.00;;
13289;SDS011;6713;50.954;5.310;2023-08-30T09:41:30;4.10;;;3.63;;
13289;SDS011;6713;50.954;5.310;2023-08-30T09:43:58;3.67;;;3.37;;
13289;SDS011;6713;50.954;5.310;2023-08-30T09:46:26;4.03;;;3.43;;
13289;SDS011;6713;50.954;5.310;2023-08-30T09:48:53;3.27;;;2.97;;
13289;SDS011;6713;50.954;5.310;2023-08-30T09:51:19;2.97;;;2.73;;
13289;SDS011;6713;50.954;5.310;2023-08-30T09:53:46;4.13;;;3.33;;
13289;SDS011;6713;50.954;5.310;2023-08-30T09:56:15;3.97;;;3.57;;
13289;SDS011;6713;50.954;5.310;2023-08-30T09:58:41;5.63;;;3.20;;
13289;SDS011;6713;50.954;5.310;2023-08-30T10:01:08;4.80;;;3.50;;
13289;SDS011;6713;50.954;5.310;2023-08-30T10:03:36;4.73;;;3.53;;
13289;SDS011;6713;50.954;5.310;2023-08-30T10:06:02;3.93;;;3.43;;
13289;SDS011;6713;50.954;5.310;2023-08-30T10:08:30;3.80;;;3.13;;
13289;SDS011;6713;50.954;5.310;2023-08-30T10:10:58;2.83;;;2.57;;
13289;SDS011;6713;50.954;5.310;2023-08-30T10:13:24;3.77;;;2.90;;
13289;SDS011;6713;50.954;5.310;2023-08-30T10:15:51;5.40;;;3.13;;
13289;SDS011;6713;50.954;5.310;2023-08-30T10:18:19;3.10;;;2.77;;
13289;SDS011;6713;50.954;5.310;2023-08-30T10:20:47;3.07;;;2.80;;
13289;SDS011;6713;50.954;5.310;2023-08-30T10:23:15;2.10;;;1.90;;
13289;SDS011;6713;50.954;5.310;2023-08-30T10:25:43;3.03;;;2.53;;
13289;SDS011;6713;50.954;5.310;2023-08-30T10:28:10;2.93;;;2.73;;
13289;SDS011;6713;50.954;5.310;2023-08-30T10:30:37;2.43;;;2.23;;
13289;SDS011;6713;50.954;5.310;2023-08-30T10:33:11;3.10;;;2.30;;
13289;SDS011;6713;50.954;5.310;2023-08-30T10:35:46;3.40;;;2.33;;
13289;SDS011;6713;50.954;5.310;2023-08-30T10:38:23;2.30;;;2.10;;
13289;SDS011;6713;50.954;5.310;2023-08-30T10:40:50;2.33;;;2.13;;
13289;SDS011;6713;50.954;5.310;2023-08-30T10:43:16;2.63;;;2.10;;
13289;SDS011;6713;50.954;5.310;2023-08-30T10:45:42;2.83;;;2.60;;
13289;SDS011;6713;50.954;5.310;2023-08-30T10:48:10;4.17;;;2.40;;
13289;SDS011;6713;50.954;5.310;2023-08-30T10:50:37;4.20;;;2.17;;
13289;SDS011;6713;50.954;5.310;2023-08-30T10:53:03;1.77;;;1.67;;
13289;SDS011;6713;50.954;5.310;2023-08-30T10:55:40;2.47;;;1.97;;
13289;SDS011;6713;50.954;5.310;2023-08-30T10:58:06;2.13;;;1.83;;
13289;SDS011;6713;50.954;5.310;2023-08-30T11:00:33;2.90;;;1.90;;
13289;SDS011;6713;50.954;5.310;2023-08-30T11:03:01;2.43;;;1.90;;
13289;SDS011;6713;50.954;5.310;2023-08-30T11:05:28;2.43;;;2.23;;
13289;SDS011;6713;50.954;5.310;2023-08-30T11:07:55;1.67;;;1.57;;
13289;SDS011;6713;50.954;5.310;2023-08-30T11:10:21;2.53;;;2.33;;
13289;SDS011;6713;50.954;5.310;2023-08-30T11:12:49;3.33;;;1.43;;
13289;SDS011;6713;50.954;5.310;2023-08-30T11:15:16;2.67;;;2.43;;
13289;SDS011;6713;50.954;5.310;2023-08-30T11:17:44;2.30;;;2.10;;
13289;SDS011;6713;50.954;5.310;2023-08-30T11:20:11;2.03;;;1.77;;
13289;SDS011;6713;50.954;5.310;2023-08-30T11:22:39;2.97;;;1.93;;
13289;SDS011;6713;50.954;5.310;2023-08-30T11:25:07;1.77;;;1.67;;
13289;SDS011;6713;50.954;5.310;2023-08-30T11:27:33;2.63;;;2.00;;
13289;SDS011;6713;50.954;5.310;2023-08-30T11:30:01;1.90;;;1.70;;
13289;SDS011;6713;50.954;5.310;2023-08-30T11:32:31;1.83;;;1.73;;
13289;SDS011;6713;50.954;5.310;2023-08-30T11:34:58;2.10;;;1.90;;
13289;SDS011;6713;50.954;5.310;2023-08-30T11:37:26;3.57;;;2.63;;
13289;SDS011;6713;50.954;5.310;2023-08-30T11:39:52;2.20;;;2.00;;
13289;SDS011;6713;50.954;5.310;2023-08-30T11:42:18;2.23;;;2.03;;
13289;SDS011;6713;50.954;5.310;2023-08-30T11:44:45;2.17;;;1.97;;
13289;SDS011;6713;50.954;5.310;2023-08-30T11:47:15;2.30;;;2.10;;
13289;SDS011;6713;50.954;5.310;2023-08-30T11:49:43;2.60;;;2.40;;
13289;SDS011;6713;50.954;5.310;2023-08-30T11:52:10;2.60;;;2.40;;
13289;SDS011;6713;50.954;5.310;2023-08-30T11:54:36;4.43;;;3.53;;
13289;SDS011;6713;50.954;5.310;2023-08-30T11:57:03;3.00;;;2.73;;
13289;SDS011;6713;50.954;5.310;2023-08-30T11:59:29;3.47;;;2.40;;
13289;SDS011;6713;50.954;5.310;2023-08-30T12:02:00;2.40;;;2.20;;
13289;SDS011;6713;50.954;5.310;2023-08-30T12:04:28;3.23;;;2.93;;
13289;SDS011;6713;50.954;5.310;2023-08-30T12:06:54;3.77;;;2.90;;
13289;SDS011;6713;50.954;5.310;2023-08-30T12:09:21;2.83;;;2.50;;
13289;SDS011;6713;50.954;5.310;2023-08-30T12:11:47;3.47;;;2.37;;
13289;SDS011;6713;50.954;5.310;2023-08-30T12:14:14;2.50;;;2.30;;
13289;SDS011;6713;50.954;5.310;2023-08-30T12:16:40;3.10;;;2.80;;
13289;SDS011;6713;50.954;5.310;2023-08-30T12:19:07;3.97;;;2.13;;
13289;SDS011;6713;50.954;5.310;2023-08-30T12:21:39;2.73;;;2.53;;
13289;SDS011;6713;50.954;5.310;2023-08-30T12:24:06;2.50;;;2.30;;
13289;SDS011;6713;50.954;5.310;2023-08-30T12:26:33;3.93;;;2.67;;
13289;SDS011;6713;50.954;5.310;2023-08-30T12:28:59;3.33;;;3.03;;
13289;SDS011;6713;50.954;5.310;2023-08-30T12:31:25;3.53;;;3.00;;
13289;SDS011;6713;50.954;5.310;2023-08-30T12:33:53;4.20;;;2.77;;
13289;SDS011;6713;50.954;5.310;2023-08-30T12:36:20;3.10;;;2.80;;
13289;SDS011;6713;50.954;5.310;2023-08-30T12:38:47;3.23;;;2.93;;
13289;SDS011;6713;50.954;5.310;2023-08-30T12:41:14;3.53;;;3.13;;
13289;SDS011;6713;50.954;5.310;2023-08-30T12:43:40;3.00;;;2.63;;
13289;SDS011;6713;50.954;5.310;2023-08-30T12:46:06;2.93;;;2.63;;
13289;SDS011;6713;50.954;5.310;2023-08-30T12:48:33;2.60;;;2.40;;
13289;SDS011;6713;50.954;5.310;2023-08-30T12:50:59;3.50;;;2.97;;
13289;SDS011;6713;50.954;5.310;2023-08-30T12:53:25;3.07;;;2.40;;
13289;SDS011;6713;50.954;5.310;2023-08-30T12:55:53;3.27;;;2.43;;
13289;SDS011;6713;50.954;5.310;2023-08-30T12:58:20;3.70;;;2.30;;
13289;SDS011;6713;50.954;5.310;2023-08-30T13:00:46;2.90;;;2.53;;
13289;SDS011;6713;50.954;5.310;2023-08-30T13:03:12;2.60;;;2.23;;
13289;SDS011;6713;50.954;5.310;2023-08-30T13:05:39;4.40;;;2.60;;
13289;SDS011;6713;50.954;5.310;2023-08-30T13:08:05;3.40;;;2.50;;
13289;SDS011;6713;50.954;5.310;2023-08-30T13:10:32;2.57;;;2.37;;
13289;SDS011;6713;50.954;5.310;2023-08-30T13:12:59;3.13;;;2.83;;
13289;SDS011;6713;50.954;5.310;2023-08-30T13:15:26;3.97;;;2.97;;
13289;SDS011;6713;50.954;5.310;2023-08-30T13:17:52;3.77;;;2.90;;
13289;SDS011;6713;50.954;5.310;2023-08-30T13:20:18;4.20;;;3.13;;
13289;SDS011;6713;50.954;5.310;2023-08-30T13:22:45;3.13;;;2.90;;
13289;SDS011;6713;50.954;5.310;2023-08-30T13:25:11;5.17;;;3.53;;
13289;SDS011;6713;50.954;5.310;2023-08-30T13:27:38;4.47;;;4.07;;
13289;SDS011;6713;50.954;5.310;2023-08-30T13:30:06;3.17;;;2.93;;
13289;SDS011;6713;50.954;5.310;2023-08-30T13:32:33;3.53;;;2.83;;
13289;SDS011;6713;50.954;5.310;2023-08-30T13:35:00;4.13;;;3.43;;
13289;SDS011;6713;50.954;5.310;2023-08-30T13:37:26;3.50;;;2.97;;
13289;SDS011;6713;50.954;5.310;2023-08-30T13:39:53;6.47;;;3.90;;
13289;SDS011;6713;50.954;5.310;2023-08-30T13:42:19;2.87;;;2.60;;
13289;SDS011;6713;50.954;5.310;2023-08-30T13:44:46;4.43;;;3.00;;
13289;SDS011;6713;50.954;5.310;2023-08-30T13:47:14;3.70;;;2.70;;
13289;SDS011;6713;50.954;5.310;2023-08-30T13:49:41;2.90;;;2.30;;
13289;SDS011;6713;50.954;5.310;2023-08-30T13:52:07;3.00;;;2.00;;
13289;SDS011;6713;50.954;5.310;2023-08-30T13:54:34;3.87;;;1.80;;
13289;SDS011;6713;50.954;5.310;2023-08-30T13:57:00;7.77;;;2.63;;
13289;SDS011;6713;50.954;5.310;2023-08-30T13:59:27;4.83;;;1.83;;
13289;SDS011;6713;50.954;5.310;2023-08-30T14:01:55;3.30;;;1.50;;
13289;SDS011;6713;50.954;5.310;2023-08-30T14:04:23;2.80;;;1.70;;
13289;SDS011;6713;50.954;5.310;2023-08-30T14:06:50;4.77;;;1.80;;
13289;SDS011;6713;50.954;5.310;2023-08-30T14:09:17;2.80;;;1.60;;
13289;SDS011;6713;50.954;5.310;2023-08-30T14:11:43;2.67;;;1.73;;
13289;SDS011;6713;50.954;5.310;2023-08-30T14:14:10;7.23;;;1.93;;
13289;SDS011;6713;50.954;5.310;2023-08-30T14:16:36;8.07;;;2.40;;
13289;SDS011;6713;50.954;5.310;2023-08-30T14:19:03;3.83;;;1.87;;
13289;SDS011;6713;50.954;5.310;2023-08-30T14:21:32;2.10;;;1.40;;
13289;SDS011;6713;50.954;5.310;2023-08-30T14:23:58;5.53;;;1.97;;
13289;SDS011;6713;50.954;5.310;2023-08-30T14:26:26;1.93;;;1.47;;
13289;SDS011;6713;50.954;5.310;2023-08-30T14:28:52;4.33;;;1.73;;
13289;SDS011;6713;50.954;5.310;2023-08-30T14:31:18;4.30;;;1.40;;
13289;SDS011;6713;50.954;5.310;2023-08-30T14:33:45;3.00;;;1.50;;
13289;SDS011;6713;50.954;5.310;2023-08-30T14:36:11;4.70;;;1.50;;
13289;SDS011;6713;50.954;5.310;2023-08-30T14:38:39;3.57;;;1.53;;
13289;SDS011;6713;50.954;5.310;2023-08-30T14:41:06;4.40;;;1.33;;
13289;SDS011;6713;50.954;5.310;2023-08-30T14:43:33;2.80;;;1.77;;
13289;SDS011;6713;50.954;5.310;2023-08-30T14:45:59;3.07;;;1.40;;
13289;SDS011;6713;50.954;5.310;2023-08-30T14:48:26;6.10;;;1.50;;
13289;SDS011;6713;50.954;5.310;2023-08-30T14:50:53;2.50;;;1.30;;
13289;SDS011;6713;50.954;5.310;2023-08-30T14:53:19;5.37;;;2.50;;
13289;SDS011;6713;50.954;5.310;2023-08-30T14:55:47;4.60;;;1.93;;